createdAt,value
2022-11-19T06:36:18.241Z,8.50
2022-11-19T06:38:45.540Z,8.55
2022-11-19T06:41:12.440Z,8.56
2022-11-19T06:43:39.341Z,8.59
2022-11-19T06:46:06.181Z,8.70
2022-11-19T06:48:33.022Z,8.74
2022-11-19T06:51:01.741Z,8.66
2022-11-19T06:53:29.389Z,8.70
2022-11-19T06:56:05.207Z,8.82
2022-11-19T06:58:32.708Z,8.89
2022-11-19T07:00:59.812Z,8.91
2022-11-19T07:03:26.850Z,8.99
2022-11-19T07:05:59.803Z,9.11
2022-11-19T07:08:26.679Z,9.05
2022-11-19T07:10:53.778Z,9.27
2022-11-19T07:13:20.572Z,9.40
2022-11-19T07:15:47.426Z,9.46
2022-11-19T07:18:14.653Z,9.56
2022-11-19T07:20:41.932Z,9.75
2022-11-19T07:23:13.350Z,10.02
2022-11-19T07:25:40.159Z,10.29
2022-11-19T07:28:08.630Z,10.62
2022-11-19T07:30:35.430Z,10.93
2022-11-19T07:33:02.564Z,11.29
2022-11-19T07:35:29.524Z,11.57
2022-11-19T07:37:56.349Z,11.74
2022-11-19T07:40:23.279Z,11.82
2022-11-19T07:42:50.105Z,12.00
2022-11-19T07:45:19.408Z,12.14
2022-11-19T07:47:52.380Z,12.36
2022-11-19T07:50:19.326Z,12.74
2022-11-19T07:52:46.370Z,13.10
2022-11-19T07:55:13.323Z,13.28
2022-11-19T07:57:40.168Z,13.43
2022-11-19T08:00:07.920Z,13.87
2022-11-19T08:02:40.686Z,14.10
2022-11-19T08:05:07.868Z,14.29
2022-11-19T08:07:37.636Z,14.27
2022-11-19T08:10:07.117Z,14.33
2022-11-19T08:12:34.042Z,14.50
2022-11-19T08:15:00.921Z,14.58
2022-11-19T08:17:46.329Z,14.54
2022-11-19T08:20:13.274Z,14.64
2022-11-19T08:22:42.117Z,14.62
2022-11-19T08:25:09.762Z,14.82
2022-11-19T08:27:36.628Z,14.94
2022-11-19T08:30:03.965Z,15.13
2022-11-19T08:32:30.777Z,15.15
2022-11-19T08:34:57.540Z,15.29
2022-11-19T08:37:24.328Z,15.42
2022-11-19T08:39:51.263Z,15.53
2022-11-19T08:42:36.524Z,15.55
2022-11-19T08:45:03.790Z,15.69
2022-11-19T08:47:30.645Z,15.65
2022-11-19T08:49:57.915Z,15.74
2022-11-19T08:52:24.737Z,16.08
2022-11-19T08:54:52.205Z,16.17
2022-11-19T08:57:19.010Z,16.13
2022-11-19T08:59:46.186Z,16.00
2022-11-19T09:02:13.013Z,16.14
2022-11-19T09:04:39.825Z,16.26
2022-11-19T09:07:06.598Z,16.31
2022-11-19T09:09:33.468Z,16.30
2022-11-19T09:12:00.254Z,16.25
2022-11-19T09:14:27.237Z,16.35
2022-11-19T09:16:54.004Z,16.46
2022-11-19T09:19:20.890Z,16.68
2022-11-19T09:21:47.726Z,16.47
2022-11-19T09:24:14.516Z,16.41
2022-11-19T09:26:41.372Z,16.47
2022-11-19T09:29:08.257Z,16.80
2022-11-19T09:31:35.116Z,16.77
2022-11-19T09:34:02.074Z,16.59
2022-11-19T09:36:28.970Z,16.53
2022-11-19T09:38:59.043Z,16.78
2022-11-19T09:41:28.866Z,17.21
2022-11-19T09:44:12.911Z,17.64
2022-11-19T09:47:06.997Z,17.60
2022-11-19T09:49:36.453Z,17.48
2022-11-19T09:52:12.603Z,17.35
2022-11-19T09:54:48.669Z,17.38
2022-11-19T09:57:24.195Z,17.20
2022-11-19T09:59:55.558Z,17.11
2022-11-19T10:02:23.345Z,17.31
2022-11-19T10:04:51.804Z,17.42
2022-11-19T10:07:24.726Z,17.42
2022-11-19T10:10:07.747Z,17.64
2022-11-19T10:12:52.808Z,17.84
2022-11-19T10:15:37.998Z,18.04
2022-11-19T10:18:35.973Z,18.27
2022-11-19T10:21:25.298Z,18.41
2022-11-19T10:24:06.054Z,18.31
2022-11-19T10:26:36.206Z,18.18
2022-11-19T10:29:14.906Z,18.05
2022-11-19T10:31:50.354Z,17.90
2022-11-19T10:34:29.653Z,17.90
2022-11-19T10:37:11.481Z,17.80
2022-11-19T10:39:48.072Z,17.84
2022-11-19T10:42:36.222Z,17.67
2022-11-19T10:45:10.366Z,17.34
2022-11-19T10:47:44.561Z,17.38
2022-11-19T10:50:20.374Z,17.41
2022-11-19T10:52:52.519Z,17.53
2022-11-19T10:55:40.243Z,17.65
2022-11-19T10:58:19.128Z,17.60
2022-11-19T11:00:46.839Z,17.51
2022-11-19T11:03:28.138Z,17.43
2022-11-19T11:06:06.465Z,17.48
2022-11-19T11:08:45.219Z,17.48
2022-11-19T11:11:12.614Z,17.64
2022-11-19T11:14:01.610Z,17.89
2022-11-19T11:16:44.382Z,18.19
2022-11-19T11:19:22.260Z,18.37
2022-11-19T11:21:57.526Z,18.56
2022-11-19T11:24:36.645Z,18.69
2022-11-19T11:27:31.152Z,18.43
2022-11-19T11:30:17.546Z,18.21
2022-11-19T11:32:44.608Z,18.03
2022-11-19T11:35:34.534Z,18.28
2022-11-19T11:38:03.028Z,18.34
2022-11-19T11:40:30.747Z,18.40
2022-11-19T11:42:58.199Z,18.14
2022-11-19T11:45:33.816Z,18.12
2022-11-19T11:48:21.510Z,18.08
2022-11-19T11:50:48.520Z,18.07
2022-11-19T11:53:17.917Z,17.80
2022-11-19T11:55:44.740Z,17.61
2022-11-19T11:58:25.518Z,17.36
2022-11-19T12:00:57.117Z,17.29
2022-11-19T12:03:25.455Z,17.23
2022-11-19T12:06:15.576Z,17.11
2022-11-19T12:09:00.610Z,17.06
2022-11-19T12:12:01.947Z,17.04
2022-11-19T12:14:52.462Z,17.03
2022-11-19T12:17:49.703Z,17.00
2022-11-19T12:20:22.753Z,17.00
2022-11-19T12:22:49.477Z,17.09
2022-11-19T12:25:22.133Z,17.06
2022-11-19T12:27:54.907Z,16.88
2022-11-19T12:30:25.563Z,16.77
2022-11-19T12:33:10.565Z,16.85
2022-11-19T12:36:16.168Z,16.73
2022-11-19T12:38:52.654Z,16.75
2022-11-19T12:41:51.045Z,16.72
2022-11-19T12:44:29.316Z,16.76
2022-11-19T12:47:28.129Z,16.74
2022-11-19T12:49:54.821Z,16.71
2022-11-19T12:52:54.119Z,16.65
2022-11-19T12:55:52.115Z,16.56
2022-11-19T12:58:36.854Z,16.53
2022-11-19T13:01:15.246Z,16.48
2022-11-19T13:03:58.102Z,16.43
2022-11-19T13:06:38.160Z,16.38
2022-11-19T13:09:12.961Z,16.37
2022-11-19T13:11:45.706Z,16.36
2022-11-19T13:14:24.701Z,16.37
2022-11-19T13:16:53.677Z,16.38
2022-11-19T13:19:20.617Z,16.36
2022-11-19T13:22:04.351Z,16.30
2022-11-19T13:24:39.380Z,16.34
2022-11-19T13:27:12.752Z,16.31
2022-11-19T13:30:02.377Z,16.33
2022-11-19T13:32:46.775Z,16.24
2022-11-19T13:35:22.861Z,16.25
2022-11-19T13:37:53.953Z,16.24
2022-11-19T13:40:41.614Z,16.19
2022-11-19T13:43:38.364Z,16.13
2022-11-19T13:46:10.950Z,16.14
2022-11-19T13:48:43.245Z,16.10
2022-11-19T13:51:32.354Z,16.07
2022-11-19T13:54:03.410Z,16.06
2022-11-19T13:56:46.807Z,16.09
2022-11-19T13:59:47.726Z,16.07
2022-11-19T14:02:17.537Z,16.08
2022-11-19T14:05:02.518Z,16.07
2022-11-19T14:07:42.538Z,16.06
2022-11-19T14:10:32.181Z,16.08
2022-11-19T14:13:17.681Z,16.11
2022-11-19T14:16:15.457Z,16.05
2022-11-19T14:19:05.796Z,16.08
2022-11-19T14:21:53.916Z,16.06
2022-11-19T14:24:45.040Z,16.09
2022-11-19T14:27:20.672Z,16.10
2022-11-19T14:29:47.410Z,16.07
2022-11-19T14:32:14.146Z,16.07
2022-11-19T14:35:22.049Z,16.04
2022-11-19T14:38:05.182Z,16.01
2022-11-19T14:40:34.378Z,16.00
2022-11-19T14:43:19.651Z,15.99
2022-11-19T14:46:10.653Z,15.95
2022-11-19T14:48:40.523Z,15.94
2022-11-19T14:51:13.332Z,15.87
2022-11-19T14:53:58.325Z,15.81
2022-11-19T14:56:25.397Z,15.72
2022-11-19T14:58:56.471Z,15.73
2022-11-19T15:01:24.494Z,15.66
2022-11-19T15:04:04.199Z,15.61
2022-11-19T15:06:35.762Z,15.57
2022-11-19T15:09:02.810Z,15.49
2022-11-19T15:11:57.506Z,15.43
2022-11-19T15:14:39.674Z,15.38
2022-11-19T15:17:11.540Z,15.33
2022-11-19T15:19:53.777Z,15.32
2022-11-19T15:23:05.396Z,15.28
2022-11-19T15:26:10.819Z,15.21
2022-11-19T15:29:08.235Z,15.15
2022-11-19T15:31:43.970Z,15.08
2022-11-19T15:34:21.587Z,15.00
2022-11-19T15:36:52.318Z,14.99
2022-11-19T15:39:34.204Z,14.96
2022-11-19T15:42:05.033Z,14.93
2022-11-19T15:44:50.395Z,14.89
2022-11-19T15:47:23.217Z,14.80
2022-11-19T15:49:53.011Z,14.80
2022-11-19T15:52:21.935Z,14.78
2022-11-19T15:54:48.758Z,14.72
2022-11-19T15:57:26.278Z,14.72
2022-11-19T16:00:01.196Z,14.72
2022-11-19T16:02:38.776Z,14.74
2022-11-19T16:05:08.382Z,14.72
2022-11-19T16:07:35.334Z,14.74
2022-11-19T16:10:06.176Z,14.73
2022-11-19T16:12:52.000Z,14.75
2022-11-19T16:15:42.245Z,14.72
2022-11-19T16:18:17.662Z,14.69
2022-11-19T16:20:51.438Z,14.67
2022-11-19T16:23:23.804Z,14.71
2022-11-19T16:25:52.689Z,14.73
2022-11-19T16:28:26.094Z,14.73
2022-11-19T16:30:55.550Z,14.72
2022-11-19T16:33:28.080Z,14.77
2022-11-19T16:36:16.168Z,14.61
2022-11-19T16:38:46.628Z,14.49
2022-11-19T16:41:34.670Z,14.35
2022-11-19T16:44:09.387Z,14.30
2022-11-19T16:46:37.098Z,14.21
2022-11-19T16:49:04.840Z,14.15
2022-11-19T16:51:49.913Z,14.09
2022-11-19T16:54:45.018Z,14.00
2022-11-19T16:57:15.115Z,13.94
2022-11-19T16:59:42.184Z,13.93
2022-11-19T17:02:15.912Z,13.85
2022-11-19T17:04:51.670Z,13.84
2022-11-19T17:07:25.018Z,13.83
2022-11-19T17:10:14.324Z,13.86
2022-11-19T17:13:04.122Z,13.90
2022-11-19T17:15:41.252Z,13.88
2022-11-19T17:18:17.646Z,13.83
2022-11-19T17:20:44.461Z,13.80
2022-11-19T17:23:17.903Z,13.76
2022-11-19T17:25:51.474Z,13.69
2022-11-19T17:28:48.902Z,13.69
2022-11-19T17:31:23.370Z,13.65
2022-11-19T17:33:58.622Z,13.59
2022-11-19T17:36:27.799Z,13.52
2022-11-19T17:38:54.961Z,13.47
2022-11-19T17:41:43.174Z,13.49
2022-11-19T17:44:34.912Z,13.47
2022-11-19T17:47:21.804Z,13.45
2022-11-19T17:49:49.937Z,13.41
2022-11-19T17:52:23.566Z,13.35
2022-11-19T17:54:51.841Z,13.31
2022-11-19T17:57:18.644Z,13.28
2022-11-19T17:59:45.539Z,13.22
2022-11-19T18:02:20.403Z,13.16
2022-11-19T18:04:48.250Z,13.10
2022-11-19T18:07:15.441Z,13.08
2022-11-19T18:09:42.374Z,12.98
2022-11-19T18:12:19.086Z,12.90
2022-11-19T18:14:47.025Z,12.92
2022-11-19T18:17:15.536Z,12.89
2022-11-19T18:19:42.748Z,12.81
2022-11-19T18:22:19.568Z,12.68
2022-11-19T18:24:48.778Z,12.74
2022-11-19T18:27:16.137Z,12.73
2022-11-19T18:29:42.949Z,12.68
2022-11-19T18:32:16.122Z,12.66
2022-11-19T18:34:44.283Z,12.60
2022-11-19T18:37:12.074Z,12.58
2022-11-19T18:39:38.853Z,12.52
2022-11-19T18:42:05.814Z,12.44
2022-11-19T18:44:35.477Z,12.32
2022-11-19T18:47:06.611Z,12.32
2022-11-19T18:49:35.360Z,12.27
2022-11-19T18:52:03.947Z,12.24
2022-11-19T18:54:30.836Z,12.21
2022-11-19T18:56:58.119Z,12.19
2022-11-19T18:59:24.957Z,12.22
2022-11-19T19:01:55.783Z,12.21
2022-11-19T19:04:23.449Z,12.07
2022-11-19T19:06:50.457Z,12.04
2022-11-19T19:09:20.679Z,12.05
2022-11-19T19:12:12.675Z,11.98
2022-11-19T19:14:40.941Z,11.86
2022-11-19T19:17:08.282Z,11.79
2022-11-19T19:19:35.654Z,11.82
2022-11-19T19:22:03.304Z,11.87
2022-11-19T19:24:31.643Z,11.86
2022-11-19T19:27:02.047Z,11.89
2022-11-19T19:29:29.166Z,11.90
2022-11-19T19:31:56.565Z,11.92
2022-11-19T19:34:23.479Z,11.95
2022-11-19T19:36:53.375Z,11.96
2022-11-19T19:39:21.433Z,11.91
2022-11-19T19:41:49.512Z,11.94
2022-11-19T19:44:16.917Z,11.97
2022-11-19T19:46:47.661Z,11.91
2022-11-19T19:49:15.954Z,11.85
2022-11-19T19:51:42.824Z,11.87
2022-11-19T19:54:09.916Z,11.86
2022-11-19T19:56:37.060Z,11.81
2022-11-19T19:59:04.101Z,11.72
2022-11-19T20:01:36.048Z,11.71
2022-11-19T20:04:08.636Z,11.68
2022-11-19T20:06:37.984Z,11.77
2022-11-19T20:09:08.793Z,11.72
2022-11-19T20:11:35.909Z,11.73
2022-11-19T20:14:02.839Z,11.71
2022-11-19T20:16:31.489Z,11.68
2022-11-19T20:19:01.124Z,11.61
2022-11-19T20:21:31.886Z,11.60
2022-11-19T20:23:58.778Z,11.59
2022-11-19T20:26:28.182Z,11.57
2022-11-19T20:28:57.430Z,11.68
2022-11-19T20:31:24.526Z,11.71
2022-11-19T20:33:57.370Z,11.73
2022-11-19T20:36:25.959Z,11.72
2022-11-19T20:38:53.379Z,11.69
2022-11-19T20:41:40.422Z,11.69
2022-11-19T20:44:22.212Z,11.71
2022-11-19T20:46:59.702Z,11.67
2022-11-19T20:49:31.601Z,11.63
2022-11-19T20:51:58.985Z,11.65
2022-11-19T20:54:26.696Z,11.69
2022-11-19T20:56:55.318Z,11.67
2022-11-19T20:59:22.950Z,11.76
2022-11-19T21:01:51.404Z,11.77
2022-11-19T21:04:19.914Z,11.79
2022-11-19T21:06:47.377Z,11.83
2022-11-19T21:09:15.977Z,11.85
2022-11-19T21:11:43.988Z,11.91
2022-11-19T21:14:10.981Z,11.92
2022-11-19T21:16:38.008Z,11.91
2022-11-19T21:19:04.872Z,11.89
2022-11-19T21:21:31.709Z,11.90
2022-11-19T21:23:58.501Z,11.88
2022-11-19T21:26:27.777Z,11.88
2022-11-19T21:28:56.878Z,11.90
2022-11-19T21:31:39.196Z,11.91
2022-11-19T21:34:11.687Z,11.92
2022-11-19T21:36:39.640Z,11.91
2022-11-19T21:39:07.007Z,11.93
2022-11-19T21:41:34.544Z,11.90
2022-11-19T21:44:02.184Z,11.92
2022-11-19T21:46:29.904Z,11.92
2022-11-19T21:48:56.702Z,11.90
2022-11-19T21:51:25.081Z,11.94
2022-11-19T21:53:59.227Z,12.10
2022-11-19T21:56:27.709Z,12.20
2022-11-19T21:58:54.532Z,12.22
2022-11-19T22:01:21.543Z,12.32
2022-11-19T22:03:48.594Z,12.34
2022-11-19T22:06:15.410Z,12.44
2022-11-19T22:08:43.078Z,12.70
2022-11-19T22:11:29.774Z,12.75
2022-11-19T22:13:59.921Z,12.82
2022-11-19T22:16:27.565Z,12.91
2022-11-19T22:18:55.454Z,12.94
2022-11-19T22:21:22.305Z,12.88
2022-11-19T22:23:49.624Z,12.82
2022-11-19T22:26:16.483Z,12.82
2022-11-19T22:28:43.335Z,12.75
2022-11-19T22:31:10.860Z,12.76
2022-11-19T22:33:39.781Z,12.76
2022-11-19T22:36:10.259Z,12.81
2022-11-19T22:38:38.955Z,13.03
2022-11-19T22:41:10.617Z,13.15
2022-11-19T22:43:38.494Z,13.37
2022-11-19T22:46:06.695Z,13.71
2022-11-19T22:48:34.146Z,13.79
2022-11-19T22:51:06.863Z,14.21
2022-11-19T22:53:37.519Z,14.88
2022-11-19T22:56:07.027Z,15.40
2022-11-19T22:58:35.047Z,15.82
2022-11-19T23:01:02.424Z,16.12
2022-11-19T23:03:29.406Z,16.10
2022-11-19T23:05:56.740Z,16.15
2022-11-19T23:08:23.512Z,16.20
2022-11-19T23:10:57.956Z,16.24
2022-11-19T23:13:33.726Z,17.05
2022-11-19T23:16:00.533Z,17.17
2022-11-19T23:18:28.137Z,17.22
2022-11-19T23:21:00.059Z,16.89
2022-11-19T23:23:27.208Z,17.08
2022-11-19T23:25:58.150Z,17.30
2022-11-19T23:28:26.619Z,17.59
2022-11-19T23:30:53.452Z,17.83
2022-11-19T23:33:21.021Z,18.05
2022-11-19T23:35:48.401Z,17.93
2022-11-19T23:38:15.583Z,17.90
2022-11-19T23:40:42.455Z,17.92
2022-11-19T23:43:09.392Z,17.80
2022-11-19T23:45:37.012Z,17.87
2022-11-19T23:48:04.434Z,17.82
2022-11-19T23:50:31.932Z,17.92
2022-11-19T23:52:58.798Z,18.04
2022-11-19T23:55:25.659Z,18.05
2022-11-19T23:57:52.561Z,18.22
